Time;durP1;ratioP1;P1;durP2;ratioP2;P2;SDS_P1;SDS_P2;PMS_P1;PMS_P2;Temp;Humidity;BMP_temperature;BMP_pressure;BME280_temperature;BME280_humidity;BME280_pressure;Samples;Min_cycle;Max_cycle;Signal;HPM_P1;HPM_P2
2021/03/06 00:01:19;;;;;;;53.47;33.20;;;;;;;7.12;53.63;102670.37;4447323;26;20127;-74
2021/03/06 00:03:45;;;;;;;57.70;32.55;;;;;;;7.17;53.77;102678.47;4418755;32;20060;-74
2021/03/06 00:06:11;;;;;;;43.70;28.17;;;;;;;7.13;53.97;102674.78;4415491;32;20061;-74
2021/03/06 00:08:37;;;;;;;36.63;23.38;;;;;;;7.05;54.10;102671.03;4416130;32;20454;-74
2021/03/06 00:11:03;;;;;;;43.33;23.23;;;;;;;6.94;54.68;102663.59;4416290;32;20085;-74
2021/03/06 00:13:29;;;;;;;49.35;24.48;;;;;;;6.92;54.45;102661.16;4408397;32;20076;-74
2021/03/06 00:15:55;;;;;;;43.35;25.27;;;;;;;6.96;54.68;102659.22;4398615;32;20043;-76
2021/03/06 00:18:23;;;;;;;41.65;22.25;;;;;;;7.07;54.58;102660.28;4390294;32;20027;-74
2021/03/06 00:20:49;;;;;;;28.52;14.87;;;;;;;7.06;53.95;102661.44;4393222;32;20125;-76
2021/03/06 00:23:14;;;;;;;19.95;11.07;;;;;;;7.05;52.64;102662.62;4406703;32;20108;-74
2021/03/06 00:25:40;;;;;;;18.58;9.07;;;;;;;7.03;52.32;102664.97;4404987;32;20050;-74
2021/03/06 00:28:06;;;;;;;18.50;9.30;;;;;;;7.08;51.48;102661.06;4404570;32;20121;-74
2021/03/06 00:30:32;;;;;;;19.52;9.25;;;;;;;7.01;51.73;102658.94;4404795;32;20505;-76
2021/03/06 00:32:58;;;;;;;21.27;9.90;;;;;;;6.91;52.84;102658.72;4406750;32;20057;-76
2021/03/06 00:35:24;;;;;;;27.33;9.85;;;;;;;6.96;52.79;102669.66;4396988;32;20435;-74
2021/03/06 00:37:49;;;;;;;23.85;9.90;;;;;;;6.97;53.06;102668.47;4402193;32;20483;-74
2021/03/06 00:40:15;;;;;;;23.83;9.25;;;;;;;6.99;53.31;102666.06;4406313;32;20031;-74
2021/03/06 00:42:41;;;;;;;20.05;8.50;;;;;;;6.83;53.52;102668.97;4404921;32;20427;-74
2021/03/06 00:45:07;;;;;;;24.00;8.25;;;;;;;6.86;53.60;102673.81;4406585;32;20407;-74
2021/03/06 00:47:33;;;;;;;18.73;8.48;;;;;;;6.89;53.39;102666.66;4402505;32;20413;-74
2021/03/06 00:49:59;;;;;;;23.12;8.07;;;;;;;6.74;53.64;102670.34;4406164;32;20035;-74
2021/03/06 00:52:24;;;;;;;18.75;8.32;;;;;;;6.83;53.73;102677.34;4404842;32;20022;-74
2021/03/06 00:54:50;;;;;;;23.48;8.18;;;;;;;6.76;54.37;102679.19;4402855;32;20026;-74
2021/03/06 00:57:16;;;;;;;20.05;9.13;;;;;;;6.68;54.56;102669.00;4399476;32;20093;-76
2021/03/06 00:59:41;;;;;;;18.05;9.27;;;;;;;6.58;55.11;102669.56;4404625;32;20042;-74
2021/03/06 01:02:07;;;;;;;23.40;10.50;;;;;;;6.42;55.43;102666.00;4406259;32;20062;-74
2021/03/06 01:04:33;;;;;;;24.65;11.00;;;;;;;6.42;55.81;102666.00;4403403;32;20042;-74
2021/03/06 01:06:58;;;;;;;27.10;12.70;;;;;;;6.44;55.74;102667.25;4404596;32;20468;-74
2021/03/06 01:09:24;;;;;;;25.67;12.32;;;;;;;6.39;55.16;102664.75;4405443;32;20034;-74
2021/03/06 01:11:50;;;;;;;32.35;12.57;;;;;;;6.52;54.84;102665.44;4406045;32;20091;-74
2021/03/06 01:14:16;;;;;;;27.83;12.50;;;;;;;6.52;54.92;102665.44;4405110;32;20026;-74
2021/03/06 01:16:41;;;;;;;24.40;12.57;;;;;;;6.40;55.12;102663.56;4404418;32;20355;-76
2021/03/06 01:19:07;;;;;;;46.42;16.25;;;;;;;6.31;55.28;102668.53;4405938;32;20062;-76
2021/03/06 01:21:34;;;;;;;27.80;13.60;;;;;;;6.27;55.77;102666.84;4405596;32;20439;-74
2021/03/06 01:24:00;;;;;;;24.35;10.25;;;;;;;6.27;56.47;102669.63;4405568;32;20423;-74
2021/03/06 01:26:25;;;;;;;19.12;9.82;;;;;;;6.25;56.64;102666.38;4399734;32;20052;-74
2021/03/06 01:28:51;;;;;;;26.42;11.02;;;;;;;6.19;56.57;102662.25;4404955;32;20051;-74
2021/03/06 01:31:17;;;;;;;21.83;11.18;;;;;;;6.32;56.65;102663.78;4405697;32;20030;-74
2021/03/06 01:33:42;;;;;;;23.62;10.98;;;;;;;6.22;56.39;102665.13;4404821;32;20042;-74
2021/03/06 01:36:08;;;;;;;26.35;13.43;;;;;;;6.35;55.78;102669.44;4402995;32;20045;-74
2021/03/06 01:38:33;;;;;;;28.40;13.80;;;;;;;6.41;55.23;102658.78;4403563;32;20386;-74
2021/03/06 01:40:59;;;;;;;25.95;12.23;;;;;;;6.47;54.63;102674.91;4405140;32;20120;-74
2021/03/06 01:43:25;;;;;;;33.25;12.27;;;;;;;6.51;54.50;102666.63;4405941;32;20399;-74
2021/03/06 01:45:50;;;;;;;27.20;12.60;;;;;;;6.55;54.18;102665.53;4405648;32;20115;-74
2021/03/06 01:48:16;;;;;;;24.83;11.57;;;;;;;6.57;54.34;102665.16;4405118;32;20121;-74
2021/03/06 01:50:44;;;;;;;27.92;12.63;;;;;;;6.54;54.39;102672.31;4404288;32;20085;-74
2021/03/06 01:53:12;;;;;;;22.85;11.20;;;;;;;6.59;54.51;102671.22;4403738;32;20342;-74
2021/03/06 01:55:42;;;;;;;17.62;8.32;;;;;;;6.61;54.04;102674.44;4397260;32;20081;-74
2021/03/06 01:58:08;;;;;;;20.20;8.93;;;;;;;6.58;53.43;102678.78;4404396;32;20229;-74
2021/03/06 02:00:34;;;;;;;20.73;9.13;;;;;;;6.69;53.47;102673.44;4403834;32;20064;-74
2021/03/06 02:03:00;;;;;;;17.15;8.38;;;;;;;6.56;53.72;102666.34;4404780;32;20058;-74
2021/03/06 02:05:27;;;;;;;25.20;9.43;;;;;;;6.39;54.10;102661.97;4396784;32;20039;-74
2021/03/06 02:07:53;;;;;;;20.33;8.43;;;;;;;6.36;54.17;102668.28;4397610;32;20057;-76
2021/03/06 02:10:26;;;;;;;19.87;8.75;;;;;;;6.40;53.97;102668.34;4404993;32;20064;-74
2021/03/06 02:18:32;;;;;;;19.50;7.82;;;;;;;7.05;53.06;102648.62;3997460;32;15026535;-75
2021/03/06 02:23:50;;;;;;;13.93;7.97;;;;;;;7.07;53.13;102659.47;3961376;32;15725502;-75
2021/03/06 02:31:41;;;;;;;18.15;7.65;;;;;;;6.95;53.57;102646.44;3997748;32;15026081;-76
2021/03/06 02:34:15;;;;;;;15.23;6.87;;;;;;;6.36;54.25;102642.28;4448307;32;20021;-76
2021/03/06 02:36:47;;;;;;;17.58;7.00;;;;;;;6.53;53.77;102644.69;4447348;32;20088;-76
2021/03/06 02:39:16;;;;;;;16.45;6.55;;;;;;;6.63;53.78;102644.13;4447651;32;20077;-76
2021/03/06 02:41:43;;;;;;;18.00;6.12;;;;;;;6.66;53.62;102640.59;4443708;32;20065;-76
2021/03/06 02:44:12;;;;;;;11.70;6.35;;;;;;;6.67;53.13;102636.59;4445767;32;20021;-76
2021/03/06 02:46:39;;;;;;;22.08;7.68;;;;;;;6.72;53.01;102639.91;4448449;32;20401;-76
2021/03/06 02:49:05;;;;;;;11.80;6.75;;;;;;;6.68;53.04;102629.81;4447868;32;20033;-76
2021/03/06 02:51:39;;;;;;;15.60;6.82;;;;;;;6.66;53.04;102629.41;4431491;32;20495;-76
2021/03/06 02:54:07;;;;;;;16.25;6.85;;;;;;;6.65;52.91;102633.34;4435788;32;20025;-76
2021/03/06 02:56:33;;;;;;;13.98;6.90;;;;;;;6.64;53.00;102637.34;4447396;32;20061;-76
2021/03/06 03:04:38;;;;;;;14.13;6.30;;;;;;;7.04;52.68;102626.59;3997151;32;15022378;-75
2021/03/06 03:07:09;;;;;;;12.80;7.28;;;;;;;6.59;53.86;102621.66;4447156;32;20116;-75
2021/03/06 03:09:39;;;;;;;13.52;5.75;;;;;;;6.64;53.30;102617.75;4448100;32;20075;-75
2021/03/06 03:12:14;;;;;;;13.48;6.40;;;;;;;6.66;53.42;102616.19;4448801;32;20086;-75
2021/03/06 03:14:47;;;;;;;13.88;5.72;;;;;;;6.55;54.19;102617.16;4447050;32;20354;-75
2021/03/06 03:17:20;;;;;;;13.30;6.05;;;;;;;6.54;54.36;102619.16;4443174;32;20022;-75
2021/03/06 03:20:04;;;;;;;11.15;6.25;;;;;;;6.63;53.94;102622.53;4448443;32;20064;-75
2021/03/06 03:22:35;;;;;;;14.40;6.05;;;;;;;6.60;53.90;102622.47;4446548;32;20397;-75
2021/03/06 03:25:04;;;;;;;8.68;5.30;;;;;;;6.57;54.14;102617.59;4448682;32;20051;-75
2021/03/06 03:27:31;;;;;;;13.80;6.47;;;;;;;6.54;53.60;102615.53;4436160;32;20072;-75
2021/03/06 03:29:58;;;;;;;11.75;5.95;;;;;;;6.48;53.79;102628.19;4433046;32;20041;-75
2021/03/06 03:32:25;;;;;;;10.93;5.57;;;;;;;6.39;53.83;102616.37;4433103;32;20022;-75
2021/03/06 03:34:51;;;;;;;15.93;6.62;;;;;;;6.37;54.11;102610.34;4447408;32;20059;-75
2021/03/06 03:37:18;;;;;;;10.82;5.50;;;;;;;6.25;54.37;102614.06;4438142;32;20342;-75
2021/03/06 03:39:46;;;;;;;13.55;5.62;;;;;;;6.30;54.25;102618.56;4432359;32;20041;-75
2021/03/06 03:42:13;;;;;;;13.43;6.03;;;;;;;6.35;54.16;102615.50;4443719;32;20033;-75
2021/03/06 03:44:39;;;;;;;11.70;5.95;;;;;;;6.36;54.55;102617.13;4434795;32;20053;-75
2021/03/06 03:47:07;;;;;;;14.48;6.95;;;;;;;6.33;54.67;102615.06;4437826;32;20026;-75
2021/03/06 03:49:33;;;;;;;15.82;7.20;;;;;;;6.44;54.56;102619.69;4445753;32;20055;-75
2021/03/06 03:51:59;;;;;;;14.85;6.22;;;;;;;6.50;54.45;102606.28;4437059;32;20034;-75
2021/03/06 03:54:25;;;;;;;15.10;6.37;;;;;;;6.48;54.51;102605.81;4438280;32;20414;-75
2021/03/06 03:56:50;;;;;;;13.27;5.82;;;;;;;6.44;54.33;102596.53;4442324;32;20421;-75
2021/03/06 03:59:16;;;;;;;17.02;7.25;;;;;;;6.37;54.92;102602.78;4430822;32;20025;-75
2021/03/06 04:01:44;;;;;;;16.30;6.25;;;;;;;6.39;54.90;102605.19;4438766;32;20030;-75
2021/03/06 04:07:01;;;;;;;16.20;8.07;;;;;;;6.83;54.41;102606.56;3992031;32;15022471;-74
2021/03/06 04:09:27;;;;;;;14.63;7.75;;;;;;;6.83;54.41;102606.56;4448255;32;20040;-77
2021/03/06 04:11:53;;;;;;;17.42;7.62;;;;;;;6.47;54.83;102602.19;4449234;32;20462;-77
2021/03/06 04:14:19;;;;;;;15.48;7.62;;;;;;;6.48;55.29;102601.03;4448068;32;20354;-77
2021/03/06 04:16:45;;;;;;;14.75;8.23;;;;;;;6.45;55.43;102600.94;4433531;32;20455;-74
2021/03/06 04:19:11;;;;;;;14.70;7.50;;;;;;;6.54;55.48;102601.56;4446579;32;20041;-76
2021/03/06 04:21:36;;;;;;;17.65;8.30;;;;;;;6.56;55.66;102608.41;4448731;32;20111;-76
2021/03/06 04:24:02;;;;;;;15.32;7.28;;;;;;;6.56;55.28;102604.81;4448835;32;20040;-74
2021/03/06 04:26:29;;;;;;;18.70;7.85;;;;;;;6.57;55.17;102595.22;4444182;32;20045;-74
2021/03/06 04:28:54;;;;;;;13.68;7.15;;;;;;;6.52;55.39;102606.69;4447885;32;20090;-76
2021/03/06 04:31:20;;;;;;;17.05;7.15;;;;;;;6.61;55.22;102601.69;4446977;32;20499;-74
2021/03/06 04:33:46;;;;;;;19.12;8.00;;;;;;;6.67;54.72;102606.66;4447409;32;20452;-76
2021/03/06 04:36:11;;;;;;;14.38;7.12;;;;;;;6.71;54.91;102606.72;4441856;32;20068;-75
2021/03/06 04:38:38;;;;;;;14.25;7.22;;;;;;;6.72;55.24;102611.94;4446061;32;20051;-76
2021/03/06 04:41:04;;;;;;;13.23;7.72;;;;;;;6.70;55.35;102605.91;4440099;32;20054;-76
2021/03/06 04:43:29;;;;;;;11.15;6.78;;;;;;;6.57;55.52;102607.22;4437183;32;20104;-76
2021/03/06 04:45:55;;;;;;;13.38;7.05;;;;;;;6.61;55.79;102621.28;4446471;32;20125;-76
2021/03/06 04:48:21;;;;;;;14.65;6.87;;;;;;;6.61;55.66;102618.47;4447470;32;20021;-76
2021/03/06 04:50:47;;;;;;;13.02;7.10;;;;;;;6.62;55.89;102618.12;4446796;32;20045;-76
2021/03/06 04:53:12;;;;;;;17.62;7.32;;;;;;;6.59;56.40;102623.66;4439340;32;20135;-74
2021/03/06 04:55:38;;;;;;;14.93;7.28;;;;;;;6.59;56.21;102612.47;4432836;32;20017;-74
2021/03/06 04:58:04;;;;;;;16.50;7.50;;;;;;;6.61;56.19;102622.09;4436553;32;20541;-76
2021/03/06 05:00:31;;;;;;;14.90;7.78;;;;;;;6.63;56.14;102616.13;4431218;32;20155;-76
2021/03/06 05:02:57;;;;;;;13.88;6.90;;;;;;;6.64;56.18;102629.75;4418867;32;20522;-74
2021/03/06 05:05:23;;;;;;;14.90;6.95;;;;;;;6.67;56.18;102625.41;4430777;32;20129;-74
2021/03/06 05:07:49;;;;;;;13.35;7.37;;;;;;;6.74;56.41;102631.16;4431236;32;20037;-74
2021/03/06 05:10:15;;;;;;;16.92;7.50;;;;;;;6.79;56.46;102634.50;4423955;32;20022;-74
2021/03/06 05:12:41;;;;;;;17.67;7.12;;;;;;;6.80;56.63;102635.28;4416160;32;20030;-76
2021/03/06 05:15:10;;;;;;;15.95;7.57;;;;;;;6.68;56.59;102624.22;4432151;32;20038;-74
2021/03/06 05:17:35;;;;;;;13.35;6.50;;;;;;;6.50;57.33;102629.44;4424986;32;20092;-74
2021/03/06 05:20:01;;;;;;;14.87;5.90;;;;;;;6.44;56.27;102628.09;4421580;32;20060;-74
2021/03/06 05:22:28;;;;;;;18.30;6.65;;;;;;;6.34;56.67;102636.25;4420121;32;20033;-74
2021/03/06 05:24:53;;;;;;;14.95;7.05;;;;;;;6.30;56.79;102635.34;4422031;32;20120;-74
2021/03/06 05:27:19;;;;;;;18.02;7.82;;;;;;;6.40;56.52;102618.81;4420728;32;20410;-74
2021/03/06 05:29:44;;;;;;;14.38;7.25;;;;;;;6.44;56.57;102630.88;4419985;32;20050;-76
2021/03/06 05:32:10;;;;;;;22.58;8.27;;;;;;;6.45;56.62;102626.13;4421645;32;20022;-74
2021/03/06 05:34:36;;;;;;;18.10;7.68;;;;;;;6.48;56.47;102630.97;4421572;32;20048;-76
2021/03/06 05:37:02;;;;;;;18.05;7.60;;;;;;;6.52;56.53;102624.28;4417866;32;20038;-75
2021/03/06 05:39:28;;;;;;;18.52;7.65;;;;;;;6.46;56.72;102636.13;4421400;32;20045;-76
2021/03/06 05:41:55;;;;;;;14.63;7.37;;;;;;;6.53;56.30;102637.09;4421793;32;20088;-74
2021/03/06 05:44:20;;;;;;;15.55;7.72;;;;;;;6.57;56.68;102638.00;4420775;32;20469;-74
2021/03/06 05:46:46;;;;;;;18.90;7.87;;;;;;;6.57;56.57;102635.22;4421367;32;20030;-74
2021/03/06 05:49:13;;;;;;;19.75;8.10;;;;;;;6.65;56.39;102645.38;4421215;32;20033;-74
2021/03/06 05:51:39;;;;;;;14.38;8.55;;;;;;;6.75;56.37;102646.78;4421574;32;20068;-74
2021/03/06 05:54:08;;;;;;;19.60;8.45;;;;;;;6.72;56.45;102645.50;4421009;32;20033;-76
2021/03/06 05:56:37;;;;;;;16.60;7.70;;;;;;;6.74;56.17;102645.97;4420276;32;20052;-76
2021/03/06 05:59:03;;;;;;;17.42;8.80;;;;;;;6.65;56.06;102644.53;4416958;32;20022;-76
2021/03/06 06:01:31;;;;;;;18.67;8.40;;;;;;;6.63;56.35;102644.13;4404494;32;20077;-74
2021/03/06 06:04:05;;;;;;;22.08;8.38;;;;;;;6.62;56.51;102648.88;4414099;32;20056;-74
2021/03/06 06:06:32;;;;;;;17.03;8.20;;;;;;;6.64;56.79;102651.31;4416585;32;20050;-74
2021/03/06 06:09:03;;;;;;;14.38;7.80;;;;;;;6.63;56.80;102638.53;4417222;32;20197;-74
2021/03/06 06:11:31;;;;;;;19.15;7.70;;;;;;;6.66;56.22;102648.97;4409214;32;20046;-76
2021/03/06 06:13:58;;;;;;;16.98;7.53;;;;;;;6.64;56.23;102648.53;4419767;32;20018;-74
2021/03/06 06:16:28;;;;;;;16.50;7.97;;;;;;;6.63;56.15;102644.91;4420919;32;20052;-74
2021/03/06 06:18:54;;;;;;;17.30;7.75;;;;;;;6.71;56.07;102657.06;4418357;32;20048;-74
2021/03/06 06:21:48;;;;;;;14.80;8.05;;;;;;;6.71;56.06;102657.06;4410748;32;20056;-74
2021/03/06 06:24:17;;;;;;;12.80;7.87;;;;;;;6.73;56.35;102654.72;4421016;32;20462;-74
2021/03/06 06:26:57;;;;;;;15.70;7.87;;;;;;;6.76;56.13;102654.00;4421003;32;20455;-73
2021/03/06 06:29:45;;;;;;;20.27;8.38;;;;;;;6.76;55.89;102657.63;4419915;32;20034;-76
2021/03/06 06:32:13;;;;;;;17.23;8.10;;;;;;;6.74;55.50;102659.12;4417386;32;20500;-76
2021/03/06 06:34:41;;;;;;;17.00;7.28;;;;;;;6.73;55.33;102651.94;4420849;32;20052;-76
2021/03/06 06:37:08;;;;;;;17.67;8.52;;;;;;;6.78;54.97;102654.44;4413511;32;20065;-76
2021/03/06 06:39:34;;;;;;;16.58;7.12;;;;;;;6.85;54.91;102649.81;4405029;32;20034;-74
2021/03/06 06:42:00;;;;;;;18.23;7.85;;;;;;;6.89;54.31;102650.69;4405974;32;20065;-74
2021/03/06 06:44:28;;;;;;;18.55;8.70;;;;;;;6.91;53.61;102650.34;4405767;32;20054;-76
2021/03/06 06:46:56;;;;;;;14.43;7.68;;;;;;;6.92;53.80;102651.94;4416999;32;20052;-76
2021/03/06 06:49:22;;;;;;;14.10;6.68;;;;;;;6.82;53.19;102646.94;4409704;32;20143;-74
2021/03/06 06:52:05;;;;;;;17.20;6.62;;;;;;;6.87;51.12;102650.25;4420529;32;20125;-74
2021/03/06 06:54:33;;;;;;;13.35;5.93;;;;;;;6.86;50.78;102643.03;4418385;32;20101;-76
2021/03/06 07:02:52;;;;;;;12.45;5.75;;;;;;;7.44;49.63;102655.81;3985994;32;15024985;-76
2021/03/06 07:08:21;;;;;;;18.10;6.28;;;;;;;7.06;49.17;102653.03;3997709;32;15026246;-74
2021/03/06 07:10:47;;;;;;;14.30;5.80;;;;;;;7.04;49.01;102644.22;4448850;32;20080;-76
2021/03/06 07:13:14;;;;;;;12.57;5.62;;;;;;;7.06;49.38;102652.25;4448635;32;20063;-76
2021/03/06 07:15:41;;;;;;;10.32;5.40;;;;;;;7.05;48.57;102656.22;4447781;32;20056;-76
2021/03/06 07:18:16;;;;;;;11.50;5.40;;;;;;;7.12;48.63;102657.16;4447373;32;20059;-77
2021/03/06 07:20:42;;;;;;;11.43;5.30;;;;;;;7.14;48.78;102659.59;4448259;32;20101;-76
2021/03/06 07:23:13;;;;;;;10.88;5.80;;;;;;;7.17;48.75;102661.66;4455367;32;20029;-74
2021/03/06 07:25:39;;;;;;;9.70;4.82;;;;;;;7.23;48.30;102665.78;4463821;32;20479;-76
2021/03/06 07:28:05;;;;;;;14.10;5.85;;;;;;;7.15;48.33;102661.25;4452628;32;20056;-74
2021/03/06 07:30:31;;;;;;;16.55;5.32;;;;;;;7.18;48.31;102663.31;4446934;32;20037;-74
2021/03/06 07:33:00;;;;;;;13.98;5.75;;;;;;;7.26;48.21;102670.66;4448985;32;20066;-74
2021/03/06 07:35:26;;;;;;;14.98;5.35;;;;;;;7.32;48.01;102661.59;4448105;32;20468;-74
2021/03/06 07:38:00;;;;;;;14.95;5.90;;;;;;;7.40;48.00;102665.34;4447469;32;20073;-74
2021/03/06 07:40:30;;;;;;;7.80;5.12;;;;;;;7.39;47.73;102658.91;4448499;32;20116;-76
2021/03/06 07:42:59;;;;;;;13.90;5.95;;;;;;;7.43;47.76;102664.59;4446734;32;20093;-76
2021/03/06 07:45:27;;;;;;;14.60;5.32;;;;;;;7.38;48.26;102656.50;4436251;32;20328;-76
2021/03/06 07:47:59;;;;;;;8.35;4.78;;;;;;;7.42;47.79;102660.97;4447164;32;20037;-76
2021/03/06 07:50:30;;;;;;;8.88;5.00;;;;;;;7.58;47.46;102658.09;4447167;32;20045;-76
2021/03/06 07:52:58;;;;;;;32.13;6.47;;;;;;;7.64;46.92;102663.00;4457528;32;20071;-75
2021/03/06 07:55:27;;;;;;;14.32;5.53;;;;;;;7.70;47.15;102661.50;4463603;32;20065;-76
2021/03/06 07:58:05;;;;;;;16.87;5.70;;;;;;;7.78;46.89;102668.88;4448422;32;20038;-76
2021/03/06 08:00:54;;;;;;;13.02;5.60;;;;;;;7.85;46.42;102666.19;4437128;32;20034;-76
2021/03/06 08:05:59;;;;;;;16.75;5.90;;;;;;;8.36;45.78;102669.50;4003862;31;15706221;-76
2021/03/06 08:14:00;;;;;;;19.40;6.70;;;;;;;8.63;45.22;102682.34;4013636;31;15013338;-75
2021/03/06 08:21:47;;;;;;;12.73;4.80;;;;;;;8.75;45.52;102675.69;3998492;32;15024144;-76
2021/03/06 08:29:44;;;;;;;17.70;5.55;;;;;;;8.73;45.16;102678.88;3989661;32;15024401;-75
2021/03/06 08:32:29;;;;;;;12.63;5.07;;;;;;;8.73;45.16;102678.88;4448234;32;20451;-75
2021/03/06 08:37:34;;;;;;;13.70;5.43;;;;;;;8.85;44.35;102675.84;3989222;32;15026363;-74
2021/03/06 08:40:08;;;;;;;12.13;4.55;;;;;;;8.85;44.35;102675.84;4442609;32;20369;-74
2021/03/06 08:45:27;;;;;;;10.40;3.92;;;;;;;9.07;41.92;102669.31;3998204;32;15025025;-75
2021/03/06 08:48:01;;;;;;;10.38;3.58;;;;;;;9.07;41.92;102669.31;4448043;32;20053;-75
2021/03/06 08:50:28;;;;;;;8.75;3.72;;;;;;;8.71;41.80;102658.78;4440306;32;20056;-75
2021/03/06 08:55:42;;;;;;;12.32;4.85;;;;;;;9.03;41.47;102670.44;3998231;32;15023699;-76
2021/03/06 08:58:10;;;;;;;14.43;5.15;;;;;;;9.03;40.76;102665.66;4438366;32;20083;-76
2021/03/06 09:00:47;;;;;;;7.72;3.83;;;;;;;9.21;40.42;102665.88;4448778;32;20041;-76
2021/03/06 09:03:24;;;;;;;6.97;3.67;;;;;;;9.23;39.76;102663.47;4439270;32;20089;-76
2021/03/06 09:05:52;;;;;;;9.05;4.18;;;;;;;9.30;39.40;102661.56;4416133;32;20065;-76
2021/03/06 09:08:20;;;;;;;10.93;3.97;;;;;;;9.33;39.28;102669.22;4428997;32;20135;-76
2021/03/06 09:10:46;;;;;;;8.20;3.20;;;;;;;9.16;39.19;102660.56;4431267;32;20030;-74
2021/03/06 09:13:18;;;;;;;11.52;3.83;;;;;;;8.98;39.26;102663.16;4427661;32;20073;-76
2021/03/06 09:18:26;;;;;;;5.85;3.67;;;;;;;9.22;38.80;102659.06;3997883;32;15022567;-76
2021/03/06 09:20:55;;;;;;;9.23;3.60;;;;;;;9.22;38.80;102659.06;4436643;32;20102;-76
2021/03/06 09:23:39;;;;;;;6.20;3.42;;;;;;;8.85;39.22;102659.00;4438215;32;20030;-76
2021/03/06 09:26:09;;;;;;;6.50;3.90;;;;;;;8.95;39.63;102652.69;4434001;32;20060;-76
2021/03/06 09:28:37;;;;;;;11.38;4.30;;;;;;;9.05;39.49;102659.66;4440313;32;20034;-76
2021/03/06 09:31:11;;;;;;;9.75;4.07;;;;;;;9.23;39.52;102655.84;4446850;32;20026;-76
2021/03/06 09:33:38;;;;;;;5.90;3.67;;;;;;;9.40;39.19;102651.62;4456008;32;20044;-75
2021/03/06 09:38:56;;;;;;;13.40;3.92;;;;;;;10.53;37.14;102661.94;3997341;32;15022617;-74
2021/03/06 09:41:26;;;;;;;6.12;3.60;;;;;;;10.53;37.14;102661.94;4446630;32;20037;-77
2021/03/06 09:43:56;;;;;;;11.18;3.60;;;;;;;10.24;37.73;102655.28;4446902;32;20056;-76
2021/03/06 09:46:25;;;;;;;4.90;3.10;;;;;;;10.20;37.26;102662.91;4446371;32;20389;-74
2021/03/06 09:48:56;;;;;;;7.95;3.80;;;;;;;10.26;37.07;102657.72;4432087;32;20030;-75
2021/03/06 09:51:23;;;;;;;11.85;4.03;;;;;;;10.28;36.42;102658.91;4440219;32;20109;-76
2021/03/06 09:54:04;;;;;;;10.80;4.20;;;;;;;10.22;36.81;102654.88;4447856;32;20025;-77
2021/03/06 09:56:30;;;;;;;7.90;4.25;;;;;;;10.34;36.88;102650.94;4432227;32;20093;-76
2021/03/06 09:59:00;;;;;;;16.25;3.90;;;;;;;10.18;37.26;102653.25;4432032;32;20120;-76
2021/03/06 10:01:26;;;;;;;7.05;4.03;;;;;;;10.29;37.13;102649.31;4427616;32;20021;-77
2021/03/06 10:03:52;;;;;;;8.93;4.35;;;;;;;10.31;36.72;102660.16;4426331;32;20038;-76
2021/03/06 10:06:21;;;;;;;12.05;3.78;;;;;;;10.28;36.88;102661.75;4431508;32;20403;-77
2021/03/06 10:08:53;;;;;;;13.90;4.20;;;;;;;10.47;36.74;102658.69;4429803;32;20049;-76
2021/03/06 10:11:28;;;;;;;12.32;4.72;;;;;;;10.52;36.68;102660.31;4431911;32;20102;-76
2021/03/06 10:13:54;;;;;;;19.10;5.62;;;;;;;10.50;36.83;102655.09;4430994;32;20450;-76
2021/03/06 10:16:20;;;;;;;9.43;5.15;;;;;;;10.58;36.73;102655.94;4424440;32;20046;-76
2021/03/06 10:18:47;;;;;;;11.70;4.87;;;;;;;10.56;36.45;102661.16;4429651;32;20371;-76
2021/03/06 10:21:16;;;;;;;11.35;5.40;;;;;;;10.50;36.66;102654.28;4430656;32;20504;-77
2021/03/06 10:23:42;;;;;;;12.75;5.03;;;;;;;10.54;36.87;102657.91;4429978;32;20071;-74
2021/03/06 10:26:25;;;;;;;11.25;4.37;;;;;;;10.50;36.34;102655.09;4430959;32;20041;-77
2021/03/06 10:28:54;;;;;;;10.05;4.45;;;;;;;10.64;36.05;102652.34;4415746;32;20117;-74
2021/03/06 10:31:37;;;;;;;15.13;5.03;;;;;;;10.68;36.28;102652.38;4413424;32;20358;-75
2021/03/06 10:34:21;;;;;;;12.20;4.82;;;;;;;10.93;36.14;102654.13;4428663;32;20064;-76
2021/03/06 10:37:22;;;;;;;7.53;3.17;;;;;;;11.04;35.59;102648.53;4422108;32;20090;-74
2021/03/06 10:40:06;;;;;;;13.98;4.20;;;;;;;10.66;35.67;102657.59;4429880;32;20079;-74
2021/03/06 10:42:50;;;;;;;9.05;3.50;;;;;;;10.82;35.39;102653.25;4418614;32;20449;-75
2021/03/06 10:45:27;;;;;;;8.93;3.78;;;;;;;11.01;35.10;102657.78;4425429;32;20312;-75
2021/03/06 10:47:55;;;;;;;12.25;4.15;;;;;;;11.19;35.14;102665.13;4428096;32;20083;-75
2021/03/06 10:50:25;;;;;;;13.52;4.12;;;;;;;11.31;34.69;102658.31;4420688;32;20312;-75
2021/03/06 10:52:53;;;;;;;9.52;3.45;;;;;;;11.51;34.36;102656.78;4420786;32;20034;-75
2021/03/06 10:55:33;;;;;;;9.95;3.67;;;;;;;11.59;34.03;102652.75;4417819;32;20137;-75
2021/03/06 10:57:59;;;;;;;6.45;3.12;;;;;;;11.87;33.69;102650.81;4418198;32;20064;-75
2021/03/06 11:00:24;;;;;;;9.93;3.10;;;;;;;12.06;33.18;102660.91;4420406;32;20473;-75
2021/03/06 11:03:00;;;;;;;7.37;3.87;;;;;;;12.23;33.00;102648.81;4417857;32;20449;-75
2021/03/06 11:05:26;;;;;;;10.68;3.50;;;;;;;12.27;33.08;102652.44;4411322;32;20041;-75
2021/03/06 11:07:54;;;;;;;9.57;3.75;;;;;;;12.08;33.17;102655.66;4404346;32;20415;-75
2021/03/06 11:10:22;;;;;;;7.20;3.70;;;;;;;12.10;33.27;102650.44;4412824;32;20100;-75
2021/03/06 11:12:53;;;;;;;10.30;3.72;;;;;;;12.12;33.11;102655.66;4421136;32;20454;-77
2021/03/06 11:15:22;;;;;;;14.48;5.53;;;;;;;12.21;33.04;102642.75;4415836;32;20018;-75
2021/03/06 11:17:54;;;;;;;6.85;4.30;;;;;;;12.36;32.80;102647.19;4418741;32;20030;-75
2021/03/06 11:20:22;;;;;;;11.02;4.12;;;;;;;12.44;32.37;102637.50;4420481;32;20046;-75
2021/03/06 11:22:49;;;;;;;7.22;4.12;;;;;;;12.34;32.61;102640.34;4420763;32;20026;-74
2021/03/06 11:25:16;;;;;;;6.10;3.62;;;;;;;12.28;32.91;102634.28;4414946;32;20122;-74
2021/03/06 11:33:07;;;;;;;13.35;4.03;;;;;;;12.64;32.27;102629.41;3989252;32;15023986;-75
2021/03/06 11:35:33;;;;;;;15.38;5.10;;;;;;;12.64;32.27;102629.41;4446653;32;20116;-74
2021/03/06 11:38:00;;;;;;;9.10;3.65;;;;;;;12.30;32.78;102625.44;4440161;32;20573;-77
2021/03/06 11:40:29;;;;;;;10.52;3.80;;;;;;;12.19;32.77;102633.91;4431459;32;20070;-76
2021/03/06 11:42:55;;;;;;;11.80;4.25;;;;;;;12.20;32.72;102635.50;4430878;32;20042;-76
2021/03/06 11:45:21;;;;;;;8.40;4.93;;;;;;;12.21;32.71;102622.19;4432588;32;20021;-76
2021/03/06 11:47:53;;;;;;;9.98;3.70;;;;;;;12.24;32.84;102615.75;4431873;32;20382;-76
2021/03/06 11:50:24;;;;;;;11.52;4.50;;;;;;;12.57;32.32;102615.25;4442141;32;20038;-76
2021/03/06 11:52:49;;;;;;;11.00;4.47;;;;;;;12.41;32.31;102617.72;4446776;32;20341;-75
2021/03/06 11:55:15;;;;;;;10.82;4.37;;;;;;;12.49;32.03;102622.16;4433393;32;20110;-77
2021/03/06 11:57:42;;;;;;;10.48;4.12;;;;;;;12.55;32.24;102614.88;4434073;32;20072;-76
2021/03/06 12:00:11;;;;;;;9.20;3.95;;;;;;;12.57;32.18;102609.63;4432607;32;20072;-77
2021/03/06 12:02:37;;;;;;;6.53;3.10;;;;;;;12.51;31.94;102609.22;4435890;32;20394;-76
2021/03/06 12:05:04;;;;;;;3.85;3.08;;;;;;;12.39;31.30;102609.66;4445548;32;20029;-77
2021/03/06 12:07:30;;;;;;;8.73;3.60;;;;;;;12.04;31.95;102604.06;4432174;32;20064;-77
2021/03/06 12:09:58;;;;;;;8.18;3.80;;;;;;;11.70;32.33;102600.03;4441649;32;20030;-76
2021/03/06 12:12:24;;;;;;;11.60;3.83;;;;;;;11.75;32.39;102594.78;4445155;32;20037;-77
2021/03/06 12:14:50;;;;;;;9.50;4.25;;;;;;;11.75;32.34;102589.13;4447393;32;20393;-76
2021/03/06 12:17:18;;;;;;;4.47;2.90;;;;;;;11.69;32.16;102587.94;4447038;32;20022;-76
2021/03/06 12:19:44;;;;;;;15.70;7.18;;;;;;;11.89;32.15;102583.50;4446351;32;20059;-76
2021/03/06 12:22:09;;;;;;;5.18;3.40;;;;;;;12.16;31.95;102583.91;4445208;32;20086;-76
2021/03/06 12:24:35;;;;;;;11.05;3.83;;;;;;;12.23;31.63;102575.41;4445535;32;20467;-77
2021/03/06 12:27:01;;;;;;;14.70;5.03;;;;;;;12.32;31.51;102575.81;4441744;32;20037;-76
2021/03/06 12:29:27;;;;;;;13.80;5.07;;;;;;;12.25;32.32;102569.34;4445051;32;20030;-76
2021/03/06 12:31:55;;;;;;;11.23;4.72;;;;;;;12.19;32.21;102571.78;4444722;32;20101;-76
2021/03/06 12:34:21;;;;;;;7.40;3.80;;;;;;;12.55;31.85;102569.69;4446732;32;20402;-75
2021/03/06 12:36:47;;;;;;;8.73;4.20;;;;;;;12.62;31.87;102567.66;4436025;32;20407;-75